Lafayette Regional Airport
KLFT : now visible

Aeroporto :











RITROVATECI SU...

 
LOGIN :

Iscrizione | Disclaimer

   EN    FR    IT 

 









Sommario :    VFR   VFR Marginale   IFR   IFR Intensivo   IFR Molto Intensivo
Visibilità : 
Base nubi : 
>= 8 km
>= 3000ft
5 / 8 km
1000 / 3000 ft
1500m / 5 km
500 / 1000 ft
800 / 1500m
200 / 500 ft
< 800m
< 200 ft
Simboli :   Temporali  Nebbia  Neve Forte  Precipitazioni Forti  Vento > 20 kt







- Altitudine del aeroporto : 42 ft
- Codice IATA : LFT


KLFT - Lafayette Regional

ULTIMO METAR :
  • 201353Z 32006KT 10SM CLR 16/08 A3009 RMK AO2 SLP188 T01560083

METARs OBSOLETI :
  • 201253Z 32006KT 10SM CLR 13/09 A3007 RMK AO2 SLP181 T01330089
  • 201153Z 28005KT 10SM CLR 11/08 A3005 RMK AO2 SLP174 70010 T01110078 10144 20111 53016

TAF KLFT
Valido dal 20 a 12 ore il 21 a 12 ore UTC


201122Z 2012/2112 30006KT P6SM SKC
FIR KZHU / America del Nord



MetMap, La meteo Aeronautica in un colpo d'occhio ! - Copyright ORBIFLY Dicembre 2007 - Disclaimer

ORBIFLY MET'MAP TEAM :

Programmazione e sviluppo : Alexandra Zaïnal
Concezione e sviluppo : Baudouin d'Aumeries
Co-Programmazione e sviluppo : Marc-Olivier Méhu
Supporto tecnico e logistico : Manuel Goepfert
Aiuto per la traduzione : Arnaldo La Scala

Contatto : metmap@orbifly.com




FONTI E CREDITI :

   NOAA       Earth
Advisory